createdAt,value
2022-12-11T00:01:18.158Z,21.75
2022-12-11T00:03:47.343Z,23.00
2022-12-11T00:06:20.933Z,21.50
2022-12-11T00:08:49.380Z,23.50
2022-12-11T00:11:18.632Z,22.00
2022-12-11T00:13:47.164Z,25.75
2022-12-11T00:16:15.913Z,25.25
2022-12-11T00:18:44.581Z,23.75
2022-12-11T00:21:16.244Z,24.25
2022-12-11T00:23:44.759Z,23.00
2022-12-11T00:26:17.450Z,17.25
2022-12-11T00:28:46.994Z,17.75
2022-12-11T00:31:20.328Z,22.25
2022-12-11T00:33:52.223Z,23.00
2022-12-11T00:36:23.332Z,17.50
2022-12-11T00:38:52.352Z,17.25
2022-12-11T00:41:20.952Z,17.50
2022-12-11T00:43:49.286Z,17.25
2022-12-11T00:46:17.738Z,18.25
2022-12-11T00:48:47.309Z,17.25
2022-12-11T00:51:15.672Z,16.75
2022-12-11T00:53:45.155Z,15.25
2022-12-11T00:56:16.748Z,15.50
2022-12-11T00:58:45.462Z,15.50
2022-12-11T01:01:20.355Z,14.00
2022-12-11T01:03:49.576Z,17.50
2022-12-11T01:06:21.398Z,15.50
2022-12-11T01:09:09.988Z,19.00
2022-12-11T01:11:38.986Z,18.00
2022-12-11T01:14:07.501Z,16.00
2022-12-11T01:16:35.921Z,15.25
2022-12-11T01:19:04.698Z,16.50
2022-12-11T01:21:33.065Z,15.50
2022-12-11T01:24:01.466Z,18.00
2022-12-11T01:26:30.479Z,16.00
2022-12-11T01:28:58.922Z,15.75
2022-12-11T01:31:27.387Z,17.00
2022-12-11T01:33:57.096Z,15.75
2022-12-11T01:36:25.790Z,15.75
2022-12-11T01:38:55.378Z,15.00
2022-12-11T01:41:24.152Z,14.50
2022-12-11T01:44:00.152Z,16.75
2022-12-11T01:46:29.230Z,15.25
2022-12-11T01:48:58.930Z,16.00
2022-12-11T01:51:28.683Z,14.00
2022-12-11T01:54:06.211Z,15.25
2022-12-11T01:56:37.382Z,13.25
2022-12-11T01:59:09.086Z,14.75
2022-12-11T02:01:46.414Z,12.75
2022-12-11T02:04:16.458Z,15.75
2022-12-11T02:06:49.161Z,17.50
2022-12-11T02:09:25.009Z,14.50
2022-12-11T02:12:20.701Z,14.00
2022-12-11T02:14:57.809Z,14.00
2022-12-11T02:17:26.063Z,16.00
2022-12-11T02:20:14.160Z,13.50
2022-12-11T02:23:12.731Z,13.75
2022-12-11T02:26:18.065Z,14.25
2022-12-11T02:29:12.365Z,16.25
2022-12-11T02:31:47.229Z,15.00
2022-12-11T02:34:24.202Z,16.50
2022-12-11T02:36:58.362Z,19.00
2022-12-11T02:39:28.876Z,17.25
2022-12-11T02:41:58.020Z,17.00
2022-12-11T02:44:30.491Z,23.25
2022-12-11T02:47:00.624Z,17.75
2022-12-11T02:49:30.208Z,15.25
2022-12-11T02:52:00.430Z,17.50
2022-12-11T02:54:34.415Z,17.00
2022-12-11T02:57:10.367Z,16.75
2022-12-11T02:59:41.765Z,16.75
2022-12-11T03:02:12.257Z,15.75
2022-12-11T03:04:41.742Z,19.00
2022-12-11T03:07:20.654Z,16.00
2022-12-11T03:09:50.764Z,16.25
2022-12-11T03:12:40.106Z,17.00
2022-12-11T03:15:12.602Z,19.25
2022-12-11T03:18:18.443Z,15.75
2022-12-11T03:21:01.628Z,17.25
2022-12-11T03:23:44.868Z,15.75
2022-12-11T03:26:17.109Z,17.50
2022-12-11T03:29:01.796Z,18.75
2022-12-11T03:31:30.055Z,17.75
2022-12-11T03:34:02.525Z,19.50
2022-12-11T03:36:36.061Z,16.50
2022-12-11T03:39:13.750Z,19.75
2022-12-11T03:41:45.371Z,18.25
2022-12-11T03:44:14.687Z,14.75
2022-12-11T03:46:46.399Z,17.00
2022-12-11T03:49:28.876Z,16.50
2022-12-11T03:51:59.537Z,18.75
2022-12-11T03:54:28.891Z,16.25
2022-12-11T03:57:00.375Z,16.75
2022-12-11T03:59:28.748Z,15.50
2022-12-11T04:01:57.117Z,16.25
2022-12-11T04:04:25.534Z,17.25
2022-12-11T04:06:56.098Z,20.50
2022-12-11T04:09:24.411Z,18.50
2022-12-11T04:11:52.699Z,14.25
2022-12-11T04:14:39.250Z,14.50
2022-12-11T04:17:07.876Z,17.25
2022-12-11T04:20:14.365Z,15.00
2022-12-11T04:23:00.914Z,15.25
2022-12-11T04:25:29.249Z,21.75
2022-12-11T04:27:57.593Z,19.00
2022-12-11T04:30:33.794Z,17.75
2022-12-11T04:33:02.577Z,14.25
2022-12-11T04:35:31.250Z,14.50
2022-12-11T04:37:59.661Z,16.25
2022-12-11T04:40:28.057Z,14.25
2022-12-11T04:42:56.396Z,12.75
2022-12-11T04:45:24.735Z,15.25
2022-12-11T04:47:53.134Z,16.50
2022-12-11T04:50:21.754Z,13.25
2022-12-11T04:52:50.109Z,14.50
2022-12-11T04:55:18.498Z,13.50
2022-12-11T04:57:46.806Z,11.25
2022-12-11T05:00:16.010Z,11.75
2022-12-11T05:02:44.621Z,12.75
2022-12-11T05:05:13.932Z,13.75
2022-12-11T05:07:43.084Z,13.50
2022-12-11T05:10:11.734Z,13.00
2022-12-11T05:12:40.331Z,13.50
2022-12-11T05:15:09.835Z,12.25
2022-12-11T05:17:38.365Z,13.50
2022-12-11T05:20:07.269Z,14.75
2022-12-11T05:22:35.668Z,14.50
2022-12-11T05:25:04.449Z,14.50
2022-12-11T05:27:33.064Z,16.00
2022-12-11T05:30:01.384Z,14.00
2022-12-11T05:32:30.480Z,15.25
2022-12-11T05:34:58.825Z,15.75
2022-12-11T05:37:27.156Z,16.50
2022-12-11T05:39:55.484Z,16.75
2022-12-11T05:42:28.574Z,15.00
2022-12-11T05:44:57.495Z,15.75
2022-12-11T05:47:26.521Z,14.00
2022-12-11T05:49:54.883Z,14.75
2022-12-11T05:52:23.217Z,18.00
2022-12-11T05:54:51.731Z,14.75
2022-12-11T05:57:20.177Z,15.50
2022-12-11T05:59:48.530Z,15.25
2022-12-11T06:02:16.970Z,13.50
2022-12-11T06:04:45.466Z,15.50
2022-12-11T06:07:15.151Z,15.25
2022-12-11T06:09:43.515Z,14.00
2022-12-11T06:12:11.889Z,16.00
2022-12-11T06:14:40.236Z,12.50
2022-12-11T06:17:08.619Z,15.00
2022-12-11T06:19:37.270Z,12.75
2022-12-11T06:22:06.105Z,18.25
2022-12-11T06:24:34.549Z,15.00
2022-12-11T06:27:02.904Z,14.75
2022-12-11T06:29:31.216Z,14.75
2022-12-11T06:31:59.559Z,15.75
2022-12-11T06:34:27.925Z,13.25
2022-12-11T06:36:56.239Z,13.25
2022-12-11T06:39:24.575Z,18.25
2022-12-11T06:41:52.868Z,12.75
2022-12-11T06:44:21.290Z,16.50
2022-12-11T06:46:49.626Z,12.75
2022-12-11T06:49:17.951Z,14.50
2022-12-11T06:51:46.305Z,10.50
2022-12-11T06:54:14.697Z,12.50
2022-12-11T06:56:43.101Z,15.75
2022-12-11T06:59:14.453Z,10.25
2022-12-11T07:01:42.837Z,12.50
2022-12-11T07:04:11.232Z,12.00
2022-12-11T07:06:39.624Z,15.50
2022-12-11T07:09:08.251Z,16.75
2022-12-11T07:11:36.583Z,14.50
2022-12-11T07:14:04.927Z,13.75
2022-12-11T07:16:33.310Z,14.25
2022-12-11T07:19:02.053Z,12.50
2022-12-11T07:21:30.569Z,14.75
2022-12-11T07:23:58.884Z,14.25
2022-12-11T07:26:27.657Z,14.00
2022-12-11T07:28:59.799Z,11.00
2022-12-11T07:31:30.696Z,14.50
2022-12-11T07:34:01.384Z,14.50
2022-12-11T07:36:31.268Z,12.75
2022-12-11T07:39:01.062Z,15.50
2022-12-11T07:41:29.788Z,13.00
2022-12-11T07:43:58.169Z,12.00
2022-12-11T07:46:29.024Z,14.00
2022-12-11T07:48:57.531Z,13.75
2022-12-11T07:51:28.880Z,10.75
2022-12-11T07:54:00.162Z,11.50
2022-12-11T07:56:30.563Z,12.75
2022-12-11T07:59:01.976Z,12.25
2022-12-11T08:01:32.261Z,10.75
2022-12-11T08:04:00.663Z,10.25
2022-12-11T08:06:34.654Z,12.50
2022-12-11T08:09:06.117Z,10.50
2022-12-11T08:11:35.050Z,12.00
2022-12-11T08:14:03.994Z,9.25
2022-12-11T08:16:33.133Z,10.00
2022-12-11T08:19:01.603Z,11.75
2022-12-11T08:21:30.464Z,9.75
2022-12-11T08:23:58.911Z,12.00
2022-12-11T08:26:30.712Z,11.25
2022-12-11T08:29:00.158Z,9.75
2022-12-11T08:31:28.678Z,11.75
2022-12-11T08:33:58.682Z,14.75
2022-12-11T08:36:27.506Z,13.00
2022-12-11T08:38:57.379Z,11.75
2022-12-11T08:41:28.361Z,9.50
2022-12-11T08:43:58.494Z,13.50
2022-12-11T08:46:30.169Z,14.75
2022-12-11T08:48:59.381Z,11.50
2022-12-11T08:51:29.543Z,10.00
2022-12-11T08:54:00.713Z,11.50
2022-12-11T08:56:30.458Z,12.50
2022-12-11T08:59:01.913Z,9.75
2022-12-11T09:01:30.699Z,10.50
2022-12-11T09:03:59.274Z,13.00
2022-12-11T09:06:30.375Z,12.00
2022-12-11T09:09:01.209Z,14.75
2022-12-11T09:11:32.788Z,12.00
2022-12-11T09:14:05.444Z,14.00
2022-12-11T09:16:38.643Z,15.50
2022-12-11T09:19:09.904Z,16.25
2022-12-11T09:21:38.637Z,14.25
2022-12-11T09:24:07.532Z,13.75
2022-12-11T09:26:36.185Z,12.00
2022-12-11T09:29:06.009Z,12.50
2022-12-11T09:31:38.060Z,13.50
2022-12-11T09:34:09.452Z,11.75
2022-12-11T09:36:40.257Z,13.00
2022-12-11T09:39:10.111Z,14.00
2022-12-11T09:42:09.998Z,14.00
2022-12-11T09:44:59.610Z,12.00
2022-12-11T09:47:42.047Z,14.50
2022-12-11T09:50:22.265Z,12.00
2022-12-11T09:53:09.780Z,14.75
2022-12-11T09:55:47.818Z,12.75
2022-12-11T09:58:58.802Z,15.00
2022-12-11T10:01:57.650Z,11.25
2022-12-11T10:04:37.977Z,14.00
2022-12-11T10:07:29.350Z,13.00
2022-12-11T10:10:01.582Z,12.75
2022-12-11T10:13:04.970Z,14.50
2022-12-11T10:16:13.683Z,13.75
2022-12-11T10:18:43.367Z,16.50
2022-12-11T10:21:14.140Z,13.50
2022-12-11T10:23:51.507Z,12.75
2022-12-11T10:26:22.369Z,15.00
2022-12-11T10:28:51.727Z,10.00
2022-12-11T10:31:42.542Z,11.75
2022-12-11T10:34:41.691Z,12.50
2022-12-11T10:37:10.701Z,13.75
2022-12-11T10:39:39.663Z,14.50
2022-12-11T10:42:23.921Z,16.25
2022-12-11T10:45:02.305Z,12.50
2022-12-11T10:47:31.722Z,12.25
2022-12-11T10:50:03.513Z,11.75
2022-12-11T10:52:47.023Z,14.75
2022-12-11T10:55:30.592Z,14.75
2022-12-11T10:58:03.494Z,16.75
2022-12-11T11:00:40.313Z,14.50
2022-12-11T11:03:26.423Z,17.50
2022-12-11T11:06:17.309Z,13.75
2022-12-11T11:08:54.913Z,15.25
2022-12-11T11:11:34.338Z,14.75
2022-12-11T11:14:20.815Z,15.25
2022-12-11T11:16:52.717Z,18.00
2022-12-11T11:19:23.960Z,16.00
2022-12-11T11:22:06.530Z,17.00
2022-12-11T11:24:40.529Z,18.75
2022-12-11T11:27:14.844Z,17.00
2022-12-11T11:29:45.769Z,19.00
2022-12-11T11:32:24.984Z,15.25
2022-12-11T11:34:53.333Z,16.00
2022-12-11T11:37:54.854Z,18.00
2022-12-11T11:40:46.284Z,17.25
2022-12-11T11:43:39.916Z,22.75
2022-12-11T11:46:55.471Z,19.50
2022-12-11T11:49:42.849Z,18.50
2022-12-11T11:52:39.400Z,19.75
2022-12-11T11:55:22.602Z,20.75
2022-12-11T11:58:25.500Z,19.25
2022-12-11T12:00:56.984Z,18.75
2022-12-11T12:03:26.917Z,20.00
2022-12-11T12:06:19.859Z,21.25
2022-12-11T12:09:12.361Z,19.75
2022-12-11T12:12:12.678Z,23.25
2022-12-11T12:14:52.019Z,25.75
2022-12-11T12:17:27.278Z,26.00
2022-12-11T12:20:36.636Z,24.75
2022-12-11T12:23:36.694Z,23.75
2022-12-11T12:26:34.815Z,23.25
2022-12-11T12:29:21.849Z,22.75
2022-12-11T12:32:11.964Z,26.00
2022-12-11T12:35:06.352Z,22.50
2022-12-11T12:37:53.329Z,23.00
2022-12-11T12:40:56.537Z,23.00
2022-12-11T12:43:30.556Z,25.50
2022-12-11T12:46:22.677Z,26.50
2022-12-11T12:48:53.358Z,29.00
2022-12-11T12:51:22.513Z,29.00
2022-12-11T12:54:00.835Z,28.25
2022-12-11T12:56:33.185Z,29.00
2022-12-11T12:59:01.498Z,28.50
2022-12-11T13:01:31.823Z,28.25
2022-12-11T13:04:03.993Z,29.50
2022-12-11T13:06:40.314Z,28.50
2022-12-11T13:09:22.543Z,28.50
2022-12-11T13:11:55.532Z,29.25
2022-12-11T13:14:32.678Z,29.25
2022-12-11T13:17:22.165Z,27.75
2022-12-11T13:19:53.987Z,22.50
2022-12-11T13:22:25.053Z,24.50
2022-12-11T13:24:53.316Z,31.50
2022-12-11T13:27:26.721Z,29.75
2022-12-11T13:30:09.641Z,25.25
2022-12-11T13:32:38.265Z,28.00
2022-12-11T13:35:08.743Z,26.00
2022-12-11T13:37:44.390Z,27.50
2022-12-11T13:40:26.560Z,27.25
2022-12-11T13:42:58.729Z,26.00
2022-12-11T13:45:30.116Z,24.25
2022-12-11T13:47:59.873Z,28.25
2022-12-11T13:50:32.726Z,24.75
2022-12-11T13:53:03.068Z,27.00
2022-12-11T13:55:34.440Z,27.25
2022-12-11T13:58:02.905Z,25.50
2022-12-11T14:00:33.857Z,27.25
2022-12-11T14:03:08.522Z,27.50
2022-12-11T14:05:37.481Z,28.00
2022-12-11T14:08:11.403Z,26.25
2022-12-11T14:10:41.207Z,24.50
2022-12-11T14:13:37.356Z,26.25
2022-12-11T14:16:07.177Z,26.25
2022-12-11T14:18:37.901Z,29.00
2022-12-11T14:21:07.614Z,26.25
2022-12-11T14:23:38.778Z,26.00
2022-12-11T14:26:21.345Z,27.75
2022-12-11T14:28:49.758Z,25.25
2022-12-11T14:31:26.539Z,28.25
2022-12-11T14:34:06.436Z,26.00
2022-12-11T14:36:37.388Z,26.50
2022-12-11T14:39:17.827Z,25.25
2022-12-11T14:41:56.365Z,28.00
2022-12-11T14:44:28.458Z,25.75
2022-12-11T14:47:03.680Z,25.00
2022-12-11T14:49:34.633Z,27.50
2022-12-11T14:52:04.145Z,26.25
2022-12-11T14:54:45.862Z,24.50
2022-12-11T14:57:22.542Z,27.25
2022-12-11T14:59:54.493Z,26.75
2022-12-11T15:02:31.655Z,25.00
2022-12-11T15:05:19.899Z,25.75
2022-12-11T15:08:11.405Z,27.75
2022-12-11T15:10:57.416Z,25.50
2022-12-11T15:13:26.555Z,26.25
2022-12-11T15:15:56.843Z,24.50
2022-12-11T15:18:27.954Z,26.50
2022-12-11T15:21:03.788Z,28.50
2022-12-11T15:23:32.528Z,24.75
2022-12-11T15:26:03.222Z,28.75
2022-12-11T15:28:37.434Z,23.50
2022-12-11T15:31:09.626Z,25.75
2022-12-11T15:33:51.133Z,23.25
2022-12-11T15:36:38.267Z,28.00
2022-12-11T15:39:09.618Z,23.75
2022-12-11T15:41:38.101Z,27.25
2022-12-11T15:44:06.865Z,26.75
2022-12-11T15:46:38.363Z,25.75
2022-12-11T15:49:13.818Z,25.25
2022-12-11T15:51:43.335Z,21.25
2022-12-11T15:54:11.990Z,26.50
2022-12-11T15:56:40.971Z,29.00
2022-12-11T15:59:10.592Z,29.00
2022-12-11T16:01:38.959Z,31.00
2022-12-11T16:04:07.420Z,29.00
2022-12-11T16:06:35.807Z,29.00
2022-12-11T16:09:05.990Z,29.00
2022-12-11T16:11:34.313Z,28.50
2022-12-11T16:14:05.343Z,29.75
2022-12-11T16:16:34.020Z,32.00
2022-12-11T16:19:02.382Z,29.00
2022-12-11T16:21:30.897Z,30.00
2022-12-11T16:23:59.209Z,28.00
2022-12-11T16:26:28.443Z,29.50
2022-12-11T16:28:56.738Z,28.75
2022-12-11T16:31:25.173Z,28.25
2022-12-11T16:33:53.697Z,26.00
2022-12-11T16:36:22.199Z,29.25
2022-12-11T16:38:53.785Z,29.50
2022-12-11T16:41:23.827Z,28.25
2022-12-11T16:43:52.908Z,28.00
2022-12-11T16:46:25.467Z,24.25
2022-12-11T16:48:53.827Z,22.75
2022-12-11T16:51:22.219Z,22.50
2022-12-11T16:53:50.734Z,23.00
2022-12-11T16:56:19.065Z,22.25
2022-12-11T16:58:48.570Z,22.75
2022-12-11T17:01:17.273Z,25.25
2022-12-11T17:03:46.139Z,23.75
2022-12-11T17:06:18.120Z,19.75
2022-12-11T17:08:46.803Z,17.25
2022-12-11T17:11:18.637Z,21.50
2022-12-11T17:13:47.411Z,21.50
2022-12-11T17:16:17.514Z,18.00
2022-12-11T17:18:45.877Z,20.25
2022-12-11T17:21:19.418Z,18.50
2022-12-11T17:23:47.894Z,20.00
2022-12-11T17:26:17.445Z,18.25
2022-12-11T17:28:46.029Z,17.75
2022-12-11T17:31:19.904Z,17.75
2022-12-11T17:33:49.115Z,17.75
2022-12-11T17:36:20.616Z,16.00
2022-12-11T17:38:50.886Z,16.00
2022-12-11T17:41:21.016Z,15.75
2022-12-11T17:43:54.574Z,14.75
2022-12-11T17:46:22.944Z,16.50
2022-12-11T17:48:51.413Z,16.75
2022-12-11T17:51:25.512Z,14.25
2022-12-11T17:53:56.955Z,12.50
2022-12-11T17:56:26.290Z,15.75
2022-12-11T17:58:54.685Z,12.00
2022-12-11T18:01:23.315Z,14.00
2022-12-11T18:03:51.794Z,16.00
2022-12-11T18:06:20.137Z,13.25
2022-12-11T18:08:48.528Z,12.00
2022-12-11T18:11:19.001Z,14.75
2022-12-11T18:13:47.386Z,16.25
2022-12-11T18:16:20.602Z,13.75
2022-12-11T18:18:51.284Z,14.00
2022-12-11T18:21:23.335Z,13.00
2022-12-11T18:23:52.326Z,14.75
2022-12-11T18:26:21.929Z,15.25
2022-12-11T18:28:51.446Z,14.75
2022-12-11T18:31:20.998Z,17.50
2022-12-11T18:33:50.201Z,16.00
2022-12-11T18:36:20.237Z,13.75
2022-12-11T18:38:49.018Z,14.50
2022-12-11T18:41:19.151Z,16.25
2022-12-11T18:43:47.619Z,12.75
2022-12-11T18:46:18.798Z,15.75
2022-12-11T18:48:47.951Z,13.00
2022-12-11T18:51:19.912Z,14.25
2022-12-11T18:53:48.276Z,12.75
2022-12-11T18:56:18.502Z,14.25
2022-12-11T18:58:47.611Z,13.50
2022-12-11T19:01:25.870Z,15.00
2022-12-11T19:04:06.700Z,14.25
2022-12-11T19:06:38.961Z,14.75
2022-12-11T19:09:09.863Z,13.75
2022-12-11T19:11:41.696Z,14.50
2022-12-11T19:14:11.160Z,14.75
2022-12-11T19:16:42.491Z,14.25
2022-12-11T19:19:19.552Z,13.50
2022-12-11T19:21:49.495Z,11.25
2022-12-11T19:24:23.555Z,13.75
2022-12-11T19:26:52.361Z,11.00
2022-12-11T19:29:23.686Z,14.00
2022-12-11T19:31:52.898Z,13.75
2022-12-11T19:34:21.700Z,11.75
2022-12-11T19:36:50.434Z,12.00
2022-12-11T19:39:20.653Z,12.75
2022-12-11T19:41:50.091Z,12.25
2022-12-11T19:44:18.456Z,12.25
2022-12-11T19:46:46.856Z,12.00
2022-12-11T19:49:15.450Z,13.00
2022-12-11T19:51:44.565Z,12.50
2022-12-11T19:54:17.996Z,12.00
2022-12-11T19:56:46.869Z,11.00
2022-12-11T19:59:17.803Z,13.00
2022-12-11T20:01:48.858Z,13.00
2022-12-11T20:04:18.851Z,11.75
2022-12-11T20:06:48.362Z,12.75
2022-12-11T20:09:17.765Z,10.75
2022-12-11T20:11:48.249Z,13.00
2022-12-11T20:14:23.858Z,11.00
2022-12-11T20:17:12.328Z,11.25
2022-12-11T20:19:42.348Z,11.50
2022-12-11T20:22:10.731Z,13.50
2022-12-11T20:24:39.324Z,13.00
2022-12-11T20:27:07.684Z,11.25
2022-12-11T20:29:36.134Z,14.00
2022-12-11T20:32:04.508Z,13.00
2022-12-11T20:34:33.000Z,15.75
2022-12-11T20:37:01.347Z,11.75
2022-12-11T20:39:30.157Z,13.00
2022-12-11T20:41:58.621Z,14.25
2022-12-11T20:44:26.945Z,11.50
2022-12-11T20:46:55.330Z,13.00
2022-12-11T20:49:23.673Z,13.50
2022-12-11T20:51:51.976Z,12.75
2022-12-11T20:54:20.382Z,15.00
2022-12-11T20:56:48.907Z,12.75
2022-12-11T20:59:17.492Z,11.50
2022-12-11T21:01:46.079Z,14.75
2022-12-11T21:04:14.442Z,10.50
2022-12-11T21:06:43.321Z,14.00
2022-12-11T21:09:18.632Z,14.25
2022-12-11T21:11:47.246Z,12.75
2022-12-11T21:14:17.457Z,13.00
2022-12-11T21:16:46.898Z,11.75
2022-12-11T21:19:22.911Z,10.00
2022-12-11T21:21:52.056Z,15.25
2022-12-11T21:24:28.396Z,12.50
2022-12-11T21:26:58.959Z,12.50
2022-12-11T21:29:30.231Z,13.25
2022-12-11T21:31:59.638Z,16.00
2022-12-11T21:34:28.162Z,14.25
2022-12-11T21:36:57.640Z,12.00
2022-12-11T21:39:27.444Z,14.25
2022-12-11T21:41:55.780Z,14.00
2022-12-11T21:47:12.545Z,12.25
2022-12-11T21:49:40.989Z,12.50
2022-12-11T21:52:10.189Z,15.00
2022-12-11T21:54:38.567Z,11.75
2022-12-11T21:57:06.981Z,13.25
2022-12-11T21:59:35.966Z,12.00
2022-12-11T22:02:04.423Z,13.50
2022-12-11T22:04:32.773Z,14.00
2022-12-11T22:07:01.356Z,13.50
2022-12-11T22:09:29.720Z,13.00
2022-12-11T22:11:58.717Z,11.25
2022-12-11T22:14:27.717Z,11.00
2022-12-11T22:16:56.126Z,14.00
2022-12-11T22:19:29.088Z,13.50
2022-12-11T22:22:00.576Z,10.50
2022-12-11T22:24:28.890Z,14.00
2022-12-11T22:26:57.207Z,13.00
2022-12-11T22:29:25.560Z,13.00
2022-12-11T22:31:55.431Z,12.50
2022-12-11T22:34:23.875Z,12.00
2022-12-11T22:36:52.289Z,11.25
2022-12-11T22:39:20.706Z,11.50
2022-12-11T22:41:49.126Z,10.50
2022-12-11T22:44:19.729Z,12.00
2022-12-11T22:46:50.225Z,12.50
2022-12-11T22:49:20.241Z,13.00
2022-12-11T22:51:49.859Z,11.50
2022-12-11T22:54:18.185Z,11.00
2022-12-11T22:56:46.537Z,12.00
2022-12-11T22:59:15.122Z,9.50
2022-12-11T23:01:43.537Z,11.50
2022-12-11T23:04:11.878Z,10.25
2022-12-11T23:06:40.384Z,11.25
2022-12-11T23:09:09.519Z,12.50
2022-12-11T23:11:39.333Z,11.75
2022-12-11T23:14:09.653Z,11.25
2022-12-11T23:16:38.033Z,11.00
2022-12-11T23:19:06.751Z,11.00
2022-12-11T23:21:35.363Z,13.50
2022-12-11T23:24:04.887Z,10.25
2022-12-11T23:26:34.060Z,11.25
2022-12-11T23:29:03.177Z,10.00
2022-12-11T23:31:31.862Z,12.00
2022-12-11T23:34:00.633Z,11.75
2022-12-11T23:36:30.246Z,11.75
2022-12-11T23:38:58.691Z,11.75
2022-12-11T23:41:27.122Z,11.00
2022-12-11T23:43:55.610Z,10.00
2022-12-11T23:46:25.517Z,13.50
2022-12-11T23:48:54.886Z,11.75
2022-12-11T23:51:25.279Z,7.50
2022-12-11T23:53:54.639Z,12.75
2022-12-11T23:56:29.045Z,13.25
2022-12-11T23:58:58.425Z,10.75
